CheckWX is a tool to help pilots better visualize weather data.  It is not intended as a substitute for an official pre-flight weather briefing.

02:54:46 UTC

KDAW METAR
Skyhaven Airport
Rochester, New Hampshire, USA
Current

16 mins ago

KDAW 230239Z AUTO 05006KT 3SM +RA BR SCT005 BKN008 OVC016 18/17 A2986 RMK AO2 P0016 T01780167 $
Observed
Jul-23 @ 02:39 UTC
Wind
  • 050° at 6 KTS
Visibility
3 SM
Flight Rules
IFR
Conditions
Heavy Rain, Mist
Cloud Levels
  • Scattered at 500' AGL
  • Broken at 800' AGL
  • Overcast at 1,600' AGL
Temperature
18°C / 64°F
Dewpoint
17°C / 63°F
Humidity
94%
Altimeter
29.86" Hg
Pressure
1011.22 hPa
Current Rain
0.16"
Previous

26 mins ago

KDAW 230229Z AUTO 36003KT 2 1/2SM +RA BR SCT005 BKN011 OVC028 18/17 A2986 RMK AO2 P0015 T01780167 $
Observed
Jul-23 @ 02:29 UTC
Wind
  • 360° at 3 KTS
Visibility
2 1/2 SM
Flight Rules
IFR
Conditions
Heavy Rain, Mist
Cloud Levels
  • Scattered at 500' AGL
  • Broken at 1,100' AGL
  • Overcast at 2,800' AGL
Temperature
18°C / 64°F
Dewpoint
17°C / 63°F
Humidity
94%
Altimeter
29.86" Hg
Pressure
1011.22 hPa
Current Rain
0.15"
Previous

35 mins ago

KDAW 230220Z AUTO 00000KT 2SM +RA BR BKN005 BKN017 OVC070 18/17 A2986 RMK AO2 P0013 T01780172 $
Observed
Jul-23 @ 02:20 UTC
Visibility
2 SM
Flight Rules
IFR
Conditions
Heavy Rain, Mist
Cloud Levels
  • Broken at 500' AGL
  • Broken at 1,700' AGL
  • Overcast at 7,000' AGL
Temperature
18°C / 64°F
Dewpoint
17°C / 63°F
Humidity
94%
Altimeter
29.86" Hg
Pressure
1011.22 hPa
Current Rain
0.13"